TFL97T EBBR-EHAM
Flight info
| Callsign | TFL97T |
|---|---|
| Flight time | N/A |
| Altitude | 14000 |
| Route | HELEN |
| Aircraft | B38M/M-SDE1FGHILORVWXY/HB1 |
Departure
| Time | 2026-05-04 13:42 |
|---|---|
| Airport | Brussels Airport (EBBR) |
Arrival
| Time | N/A |
|---|---|
| Airport | Amsterdam Airport Schiphol (EHAM) |
| Time | Latitude | Longitude | Altitude | Speed | Heading |
|---|---|---|---|---|---|
| 2026-05-04 13:42 | 51.04172 | 4.69014 | 8833 ft | 280 kts | 166° |
| 2026-05-04 13:42 | 51.02286 | 4.69805 | 8980 ft | 281 kts | 166° |
| 2026-05-04 13:43 | 51.00390 | 4.70598 | 9133 ft | 282 kts | 166° |
| 2026-05-04 13:43 | 50.98484 | 4.71396 | 9262 ft | 284 kts | 166° |
| 2026-05-04 13:43 | 50.96574 | 4.72195 | 9398 ft | 285 kts | 166° |
| 2026-05-04 13:43 | 50.95895 | 4.72479 | 9450 ft | 285 kts | 166° |
| 2026-05-04 13:44 | 50.94483 | 4.73070 | 9538 ft | 285 kts | 166° |
| 2026-05-04 13:44 | 50.92564 | 4.73872 | 9675 ft | 286 kts | 166° |
| 2026-05-04 13:44 | 50.90637 | 4.74677 | 9788 ft | 287 kts | 166° |
| 2026-05-04 13:44 | 50.88700 | 4.75485 | 9782 ft | 287 kts | 166° |
| 2026-05-04 13:45 | 50.86767 | 4.76292 | 9784 ft | 287 kts | 166° |
| 2026-05-04 13:45 | 50.84837 | 4.77097 | 9784 ft | 287 kts | 166° |
| 2026-05-04 13:45 | 50.82910 | 4.77900 | 9782 ft | 286 kts | 166° |
| 2026-05-04 13:45 | 50.80979 | 4.78704 | 9781 ft | 287 kts | 166° |
| 2026-05-04 13:46 | 50.79050 | 4.79508 | 9786 ft | 287 kts | 166° |
| 2026-05-04 13:46 | 50.77121 | 4.80311 | 9786 ft | 287 kts | 165° |
| 2026-05-04 13:46 | 50.75201 | 4.81110 | 10013 ft | 286 kts | 165° |
| 2026-05-04 13:46 | 50.73264 | 4.81914 | 10292 ft | 288 kts | 165° |
| 2026-05-04 13:47 | 50.71323 | 4.82721 | 10559 ft | 289 kts | 165° |
| 2026-05-04 13:47 | 50.69379 | 4.83529 | 10829 ft | 290 kts | 165° |
| 2026-05-04 13:47 | 50.67423 | 4.84341 | 11100 ft | 291 kts | 165° |
| 2026-05-04 13:47 | 50.65462 | 4.85154 | 11374 ft | 291 kts | 165° |
| 2026-05-04 13:48 | 50.63497 | 4.85970 | 11651 ft | 293 kts | 165° |
| 2026-05-04 13:48 | 50.61525 | 4.86788 | 11930 ft | 294 kts | 165° |
| 2026-05-04 13:48 | 50.59543 | 4.87610 | 12209 ft | 295 kts | 165° |
| 2026-05-04 13:48 | 50.57552 | 4.88435 | 12498 ft | 296 kts | 165° |
| 2026-05-04 13:49 | 50.55558 | 4.89261 | 12779 ft | 297 kts | 165° |
| 2026-05-04 13:49 | 50.53558 | 4.90089 | 13072 ft | 298 kts | 165° |
| 2026-05-04 13:49 | 50.51574 | 4.90910 | 13359 ft | 300 kts | 165° |
| 2026-05-04 13:49 | 50.49554 | 4.91746 | 13653 ft | 301 kts | 165° |
| 2026-05-04 13:50 | 50.47528 | 4.92584 | 13933 ft | 302 kts | 165° |
| 2026-05-04 13:50 | 50.45482 | 4.93430 | 14102 ft | 311 kts | 165° |
| 2026-05-04 13:50 | 50.43343 | 4.94319 | 14106 ft | 317 kts | 164° |
| 2026-05-04 13:50 | 50.41315 | 4.95558 | 14094 ft | 313 kts | 148° |